Sunny Hill, Arkansas
Current Conditions -  °F | °C
As of 10:56 PM on Saturday 20 Dec 2014 (Local Time) from KSRC Reporting Station
Few Clouds Few Clouds  
Wind Chill: 35°   Ceiling: Unl
Heat Index: 35°   Visibility: 7mi
Dew Point: 34°   Wind: 3mph
Humidity: 96%   Direction: 40°NE
Pressure: 30.27"   Gusts: NA
Location:  35.2662°N, 91.8491°W
Report Text: KSRC 210456Z AUTO 04003KT 7SM FEW048 02/01 A3027 RMK AO2 SLP257 T00170011 400780011 FZRANO TSNO
Loading
Personal Weather Stations






























Interactive Weather Map New forecast layout! Learn more

10-Day Weather Forecast

Advertisements
Track Severe Weather on mobile